sensor_id;sensor_type;location;lat;lon;timestamp;temperature;humidity
14210;DHT22;7188;56.070;12.698;2023-04-03T00:02:08;0.80;99.90
14210;DHT22;7188;56.070;12.698;2023-04-03T00:04:33;0.70;99.90
14210;DHT22;7188;56.070;12.698;2023-04-03T00:07:00;0.50;7.70
14210;DHT22;7188;56.070;12.698;2023-04-03T00:09:25;0.40;1.00
14210;DHT22;7188;56.070;12.698;2023-04-03T00:11:51;0.40;1.00
14210;DHT22;7188;56.070;12.698;2023-04-03T00:14:17;0.30;1.00
14210;DHT22;7188;56.070;12.698;2023-04-03T00:16:42;0.20;1.00
14210;DHT22;7188;56.070;12.698;2023-04-03T00:19:08;0.20;1.00
14210;DHT22;7188;56.070;12.698;2023-04-03T00:21:37;0.10;1.00
14210;DHT22;7188;56.070;12.698;2023-04-03T00:24:02;0.10;1.00
14210;DHT22;7188;56.070;12.698;2023-04-03T00:26:40;0.00;1.00
14210;DHT22;7188;56.070;12.698;2023-04-03T00:29:06;0.00;1.00
14210;DHT22;7188;56.070;12.698;2023-04-03T00:31:31;0.00;1.00
14210;DHT22;7188;56.070;12.698;2023-04-03T00:33:58;0.00;1.00
14210;DHT22;7188;56.070;12.698;2023-04-03T00:36:23;-0.10;1.00
14210;DHT22;7188;56.070;12.698;2023-04-03T00:38:49;0.10;1.00
14210;DHT22;7188;56.070;12.698;2023-04-03T00:41:15;0.10;1.00
14210;DHT22;7188;56.070;12.698;2023-04-03T00:43:40;0.20;1.00
14210;DHT22;7188;56.070;12.698;2023-04-03T00:46:06;0.50;99.90
14210;DHT22;7188;56.070;12.698;2023-04-03T00:48:36;0.90;99.90
14210;DHT22;7188;56.070;12.698;2023-04-03T00:51:05;0.80;53.90
14210;DHT22;7188;56.070;12.698;2023-04-03T00:54:07;0.80;7.80
14210;DHT22;7188;56.070;12.698;2023-04-03T00:56:33;0.90;18.50
14210;DHT22;7188;56.070;12.698;2023-04-03T00:59:05;0.80;1.00
14210;DHT22;7188;56.070;12.698;2023-04-03T01:01:32;0.60;1.00
14210;DHT22;7188;56.070;12.698;2023-04-03T01:04:01;0.40;1.00
14210;DHT22;7188;56.070;12.698;2023-04-03T01:06:30;0.20;1.00
14210;DHT22;7188;56.070;12.698;2023-04-03T01:08:59;0.00;1.00
14210;DHT22;7188;56.070;12.698;2023-04-03T01:11:25;0.00;1.00
14210;DHT22;7188;56.070;12.698;2023-04-03T01:13:51;0.00;1.00
14210;DHT22;7188;56.070;12.698;2023-04-03T01:16:18;-0.10;1.00
14210;DHT22;7188;56.070;12.698;2023-04-03T01:18:49;-0.20;1.00
14210;DHT22;7188;56.070;12.698;2023-04-03T01:21:41;-0.10;1.00
14210;DHT22;7188;56.070;12.698;2023-04-03T01:24:20;-0.20;1.00
14210;DHT22;7188;56.070;12.698;2023-04-03T01:26:48;-0.30;1.00
14210;DHT22;7188;56.070;12.698;2023-04-03T01:29:14;-0.50;1.00
14210;DHT22;7188;56.070;12.698;2023-04-03T01:31:52;-0.50;44.60
14210;DHT22;7188;56.070;12.698;2023-04-03T01:34:18;-0.50;99.90
14210;DHT22;7188;56.070;12.698;2023-04-03T01:36:44;-0.40;99.90
14210;DHT22;7188;56.070;12.698;2023-04-03T01:39:10;-0.40;94.30
14210;DHT22;7188;56.070;12.698;2023-04-03T01:41:36;-0.40;99.90
14210;DHT22;7188;56.070;12.698;2023-04-03T01:44:02;-0.40;88.20
14210;DHT22;7188;56.070;12.698;2023-04-03T01:46:27;-0.50;76.20
14210;DHT22;7188;56.070;12.698;2023-04-03T01:48:53;-0.50;92.10
14210;DHT22;7188;56.070;12.698;2023-04-03T01:51:19;-0.30;99.90
14210;DHT22;7188;56.070;12.698;2023-04-03T01:53:44;-0.20;99.90
14210;DHT22;7188;56.070;12.698;2023-04-03T01:56:10;-0.10;99.90
14210;DHT22;7188;56.070;12.698;2023-04-03T01:58:36;-0.10;70.20
14210;DHT22;7188;56.070;12.698;2023-04-03T02:01:02;0.00;90.30
14210;DHT22;7188;56.070;12.698;2023-04-03T02:03:27;0.00;69.40
14210;DHT22;7188;56.070;12.698;2023-04-03T02:05:53;0.00;1.00
14210;DHT22;7188;56.070;12.698;2023-04-03T02:08:19;0.00;1.00
14210;DHT22;7188;56.070;12.698;2023-04-03T02:10:47;0.00;1.00
14210;DHT22;7188;56.070;12.698;2023-04-03T02:13:14;-0.10;1.00
14210;DHT22;7188;56.070;12.698;2023-04-03T02:15:39;-0.10;1.00
14210;DHT22;7188;56.070;12.698;2023-04-03T02:18:06;-0.10;1.00
14210;DHT22;7188;56.070;12.698;2023-04-03T02:20:31;-0.10;1.00
14210;DHT22;7188;56.070;12.698;2023-04-03T02:22:59;0.00;51.10
14210;DHT22;7188;56.070;12.698;2023-04-03T02:25:31;0.10;26.50
14210;DHT22;7188;56.070;12.698;2023-04-03T02:27:57;0.00;1.00
14210;DHT22;7188;56.070;12.698;2023-04-03T02:30:23;0.00;1.00
14210;DHT22;7188;56.070;12.698;2023-04-03T02:32:50;-0.10;28.30
14210;DHT22;7188;56.070;12.698;2023-04-03T02:35:15;-0.10;1.00
14210;DHT22;7188;56.070;12.698;2023-04-03T02:37:41;-0.40;1.00
14210;DHT22;7188;56.070;12.698;2023-04-03T02:40:08;-0.70;1.00
14210;DHT22;7188;56.070;12.698;2023-04-03T02:42:33;-0.70;88.10
14210;DHT22;7188;56.070;12.698;2023-04-03T02:44:59;-0.70;99.90
14210;DHT22;7188;56.070;12.698;2023-04-03T02:47:28;-0.60;99.90
14210;DHT22;7188;56.070;12.698;2023-04-03T02:49:54;-0.70;99.90
14210;DHT22;7188;56.070;12.698;2023-04-03T02:52:20;-0.80;99.90
14210;DHT22;7188;56.070;12.698;2023-04-03T02:54:45;-0.90;99.90
14210;DHT22;7188;56.070;12.698;2023-04-03T02:57:11;-1.00;99.90
14210;DHT22;7188;56.070;12.698;2023-04-03T02:59:37;-1.00;99.90
14210;DHT22;7188;56.070;12.698;2023-04-03T03:02:07;-0.90;99.90
14210;DHT22;7188;56.070;12.698;2023-04-03T03:04:33;-0.70;1.00
14210;DHT22;7188;56.070;12.698;2023-04-03T03:06:59;-0.50;1.00
14210;DHT22;7188;56.070;12.698;2023-04-03T03:09:24;-0.70;99.90
14210;DHT22;7188;56.070;12.698;2023-04-03T03:11:50;-0.80;99.90
14210;DHT22;7188;56.070;12.698;2023-04-03T03:14:16;-0.80;99.90
14210;DHT22;7188;56.070;12.698;2023-04-03T03:16:41;-0.90;99.90
14210;DHT22;7188;56.070;12.698;2023-04-03T03:19:07;-0.90;1.00
14210;DHT22;7188;56.070;12.698;2023-04-03T03:21:33;-0.70;1.00
14210;DHT22;7188;56.070;12.698;2023-04-03T03:23:58;-0.40;1.00
14210;DHT22;7188;56.070;12.698;2023-04-03T03:26:24;-0.10;12.50
14210;DHT22;7188;56.070;12.698;2023-04-03T03:28:50;-0.30;1.00
14210;DHT22;7188;56.070;12.698;2023-04-03T03:31:16;-0.30;1.00
14210;DHT22;7188;56.070;12.698;2023-04-03T03:33:41;-0.20;99.90
14210;DHT22;7188;56.070;12.698;2023-04-03T03:36:07;-0.10;1.00
14210;DHT22;7188;56.070;12.698;2023-04-03T03:38:33;-0.20;1.00
14210;DHT22;7188;56.070;12.698;2023-04-03T03:40:58;-0.50;1.00
14210;DHT22;7188;56.070;12.698;2023-04-03T03:43:24;-0.80;1.00
14210;DHT22;7188;56.070;12.698;2023-04-03T03:45:51;-0.90;99.90
14210;DHT22;7188;56.070;12.698;2023-04-03T03:48:18;-0.80;1.00
14210;DHT22;7188;56.070;12.698;2023-04-03T03:50:43;-0.60;1.00
14210;DHT22;7188;56.070;12.698;2023-04-03T03:53:09;-0.80;1.00
14210;DHT22;7188;56.070;12.698;2023-04-03T03:55:34;-1.20;1.00
14210;DHT22;7188;56.070;12.698;2023-04-03T03:58:00;-1.50;1.00
14210;DHT22;7188;56.070;12.698;2023-04-03T04:00:27;-1.50;1.00
14210;DHT22;7188;56.070;12.698;2023-04-03T04:02:52;-1.50;1.00
14210;DHT22;7188;56.070;12.698;2023-04-03T04:05:18;-1.50;1.00
14210;DHT22;7188;56.070;12.698;2023-04-03T04:07:44;-1.30;99.90
14210;DHT22;7188;56.070;12.698;2023-04-03T04:10:10;-1.30;91.30
14210;DHT22;7188;56.070;12.698;2023-04-03T04:12:35;-1.50;1.00
14210;DHT22;7188;56.070;12.698;2023-04-03T04:15:01;-1.50;1.00
14210;DHT22;7188;56.070;12.698;2023-04-03T04:17:27;-1.30;39.30
14210;DHT22;7188;56.070;12.698;2023-04-03T04:19:53;-1.10;99.90
14210;DHT22;7188;56.070;12.698;2023-04-03T04:22:18;-1.30;99.90
14210;DHT22;7188;56.070;12.698;2023-04-03T04:24:44;-0.70;1.00
14210;DHT22;7188;56.070;12.698;2023-04-03T04:27:10;-0.60;99.90
14210;DHT22;7188;56.070;12.698;2023-04-03T04:29:36;-0.40;1.00
14210;DHT22;7188;56.070;12.698;2023-04-03T04:32:03;-0.60;92.10
14210;DHT22;7188;56.070;12.698;2023-04-03T04:34:29;-0.40;99.90
14210;DHT22;7188;56.070;12.698;2023-04-03T04:36:55;-0.50;96.60
14210;DHT22;7188;56.070;12.698;2023-04-03T04:39:20;-0.80;1.00
14210;DHT22;7188;56.070;12.698;2023-04-03T04:41:46;-1.30;1.00
14210;DHT22;7188;56.070;12.698;2023-04-03T04:44:11;-1.30;99.90
14210;DHT22;7188;56.070;12.698;2023-04-03T04:46:37;-0.60;1.00
14210;DHT22;7188;56.070;12.698;2023-04-03T04:49:03;-0.70;99.90
14210;DHT22;7188;56.070;12.698;2023-04-03T04:51:28;-0.90;99.90
14210;DHT22;7188;56.070;12.698;2023-04-03T04:53:54;-0.60;1.00
14210;DHT22;7188;56.070;12.698;2023-04-03T04:56:20;-0.20;1.00
14210;DHT22;7188;56.070;12.698;2023-04-03T04:58:46;-0.30;99.90
14210;DHT22;7188;56.070;12.698;2023-04-03T05:01:11;-0.20;1.00
14210;DHT22;7188;56.070;12.698;2023-04-03T05:03:37;-0.50;1.00
14210;DHT22;7188;56.070;12.698;2023-04-03T05:06:03;-0.60;99.90
14210;DHT22;7188;56.070;12.698;2023-04-03T05:08:34;-0.50;99.90
14210;DHT22;7188;56.070;12.698;2023-04-03T05:11:00;-0.20;99.90
14210;DHT22;7188;56.070;12.698;2023-04-03T05:13:26;0.10;1.00
14210;DHT22;7188;56.070;12.698;2023-04-03T05:15:51;0.10;99.90
14210;DHT22;7188;56.070;12.698;2023-04-03T05:18:17;0.10;99.90
14210;DHT22;7188;56.070;12.698;2023-04-03T05:20:42;-0.10;1.00
14210;DHT22;7188;56.070;12.698;2023-04-03T05:23:09;-0.10;1.00
14210;DHT22;7188;56.070;12.698;2023-04-03T05:25:38;-0.20;1.00
14210;DHT22;7188;56.070;12.698;2023-04-03T05:28:04;-0.30;1.00
14210;DHT22;7188;56.070;12.698;2023-04-03T05:30:29;-0.20;1.00
14210;DHT22;7188;56.070;12.698;2023-04-03T05:32:55;-0.20;1.00
14210;DHT22;7188;56.070;12.698;2023-04-03T05:35:20;0.10;1.00
14210;DHT22;7188;56.070;12.698;2023-04-03T05:37:46;0.10;1.00
14210;DHT22;7188;56.070;12.698;2023-04-03T05:40:12;0.30;1.00
14210;DHT22;7188;56.070;12.698;2023-04-03T05:42:38;0.30;1.00
14210;DHT22;7188;56.070;12.698;2023-04-03T05:45:04;0.40;1.00
14210;DHT22;7188;56.070;12.698;2023-04-03T05:47:30;0.40;1.00
14210;DHT22;7188;56.070;12.698;2023-04-03T05:49:56;0.40;1.00
14210;DHT22;7188;56.070;12.698;2023-04-03T05:52:29;0.60;99.90
14210;DHT22;7188;56.070;12.698;2023-04-03T05:54:55;0.60;99.90
14210;DHT22;7188;56.070;12.698;2023-04-03T05:57:22;0.80;99.90
14210;DHT22;7188;56.070;12.698;2023-04-03T05:59:48;1.00;99.90
14210;DHT22;7188;56.070;12.698;2023-04-03T06:02:16;1.00;99.90
14210;DHT22;7188;56.070;12.698;2023-04-03T06:04:43;1.00;10.10
14210;DHT22;7188;56.070;12.698;2023-04-03T06:07:13;1.50;1.00
14210;DHT22;7188;56.070;12.698;2023-04-03T06:09:39;1.40;1.00
14210;DHT22;7188;56.070;12.698;2023-04-03T06:12:05;1.10;1.00
14210;DHT22;7188;56.070;12.698;2023-04-03T06:14:31;0.90;1.00
14210;DHT22;7188;56.070;12.698;2023-04-03T06:16:56;0.80;1.00
14210;DHT22;7188;56.070;12.698;2023-04-03T06:19:22;0.70;1.00
14210;DHT22;7188;56.070;12.698;2023-04-03T06:21:48;0.60;1.00
14210;DHT22;7188;56.070;12.698;2023-04-03T06:24:16;0.60;1.00
14210;DHT22;7188;56.070;12.698;2023-04-03T06:26:42;0.70;1.00
14210;DHT22;7188;56.070;12.698;2023-04-03T06:29:17;0.70;1.00
14210;DHT22;7188;56.070;12.698;2023-04-03T06:31:43;0.70;1.00
14210;DHT22;7188;56.070;12.698;2023-04-03T06:34:09;0.70;1.00
14210;DHT22;7188;56.070;12.698;2023-04-03T06:36:36;0.70;1.00
14210;DHT22;7188;56.070;12.698;2023-04-03T06:39:03;0.70;1.00
14210;DHT22;7188;56.070;12.698;2023-04-03T06:41:29;0.80;1.00
14210;DHT22;7188;56.070;12.698;2023-04-03T06:43:54;0.80;1.00
14210;DHT22;7188;56.070;12.698;2023-04-03T06:46:22;0.80;1.00
14210;DHT22;7188;56.070;12.698;2023-04-03T06:48:49;0.70;1.00
14210;DHT22;7188;56.070;12.698;2023-04-03T06:51:21;0.70;1.00
14210;DHT22;7188;56.070;12.698;2023-04-03T06:53:48;0.80;1.00
14210;DHT22;7188;56.070;12.698;2023-04-03T06:56:15;1.00;1.00
14210;DHT22;7188;56.070;12.698;2023-04-03T06:58:40;1.00;1.00
14210;DHT22;7188;56.070;12.698;2023-04-03T07:01:08;0.90;1.00
14210;DHT22;7188;56.070;12.698;2023-04-03T07:03:34;1.00;1.00
14210;DHT22;7188;56.070;12.698;2023-04-03T07:06:01;0.90;1.00
14210;DHT22;7188;56.070;12.698;2023-04-03T07:08:26;0.90;1.00
14210;DHT22;7188;56.070;12.698;2023-04-03T07:10:52;1.00;1.00
14210;DHT22;7188;56.070;12.698;2023-04-03T07:13:18;1.00;1.00
14210;DHT22;7188;56.070;12.698;2023-04-03T07:15:43;1.00;1.00
14210;DHT22;7188;56.070;12.698;2023-04-03T07:18:09;1.10;1.00
14210;DHT22;7188;56.070;12.698;2023-04-03T07:20:35;1.20;1.00
14210;DHT22;7188;56.070;12.698;2023-04-03T07:23:00;1.20;1.00
14210;DHT22;7188;56.070;12.698;2023-04-03T07:25:27;1.30;1.00
14210;DHT22;7188;56.070;12.698;2023-04-03T07:27:53;1.30;1.00
14210;DHT22;7188;56.070;12.698;2023-04-03T07:30:20;1.40;1.00
14210;DHT22;7188;56.070;12.698;2023-04-03T07:32:46;1.40;1.00
14210;DHT22;7188;56.070;12.698;2023-04-03T07:35:12;1.30;1.00
14210;DHT22;7188;56.070;12.698;2023-04-03T07:37:37;1.30;1.00
14210;DHT22;7188;56.070;12.698;2023-04-03T07:40:04;1.40;1.00
14210;DHT22;7188;56.070;12.698;2023-04-03T07:42:30;1.60;1.00
14210;DHT22;7188;56.070;12.698;2023-04-03T07:44:55;1.70;1.00
14210;DHT22;7188;56.070;12.698;2023-04-03T07:47:22;1.80;1.00
14210;DHT22;7188;56.070;12.698;2023-04-03T07:49:47;1.80;1.00
14210;DHT22;7188;56.070;12.698;2023-04-03T07:52:13;1.80;1.00
14210;DHT22;7188;56.070;12.698;2023-04-03T07:54:41;1.90;1.00
14210;DHT22;7188;56.070;12.698;2023-04-03T07:57:07;2.00;1.00
14210;DHT22;7188;56.070;12.698;2023-04-03T07:59:32;2.00;1.00
14210;DHT22;7188;56.070;12.698;2023-04-03T08:01:58;2.00;1.00
14210;DHT22;7188;56.070;12.698;2023-04-03T08:04:24;2.00;1.00
14210;DHT22;7188;56.070;12.698;2023-04-03T08:06:51;1.90;1.00
14210;DHT22;7188;56.070;12.698;2023-04-03T08:09:18;2.00;1.00
14210;DHT22;7188;56.070;12.698;2023-04-03T08:11:45;2.00;1.00
14210;DHT22;7188;56.070;12.698;2023-04-03T08:14:11;2.00;1.00
14210;DHT22;7188;56.070;12.698;2023-04-03T08:16:43;1.90;1.00
14210;DHT22;7188;56.070;12.698;2023-04-03T08:19:08;2.10;1.00
14210;DHT22;7188;56.070;12.698;2023-04-03T08:21:34;2.20;1.00
14210;DHT22;7188;56.070;12.698;2023-04-03T08:23:59;2.20;1.00
14210;DHT22;7188;56.070;12.698;2023-04-03T08:26:25;2.20;1.00
14210;DHT22;7188;56.070;12.698;2023-04-03T08:28:52;2.30;1.00
14210;DHT22;7188;56.070;12.698;2023-04-03T08:31:19;2.40;1.00
14210;DHT22;7188;56.070;12.698;2023-04-03T08:33:45;2.40;1.00
14210;DHT22;7188;56.070;12.698;2023-04-03T08:36:26;2.50;1.00
14210;DHT22;7188;56.070;12.698;2023-04-03T08:38:52;2.50;1.00
14210;DHT22;7188;56.070;12.698;2023-04-03T08:41:43;2.60;1.00
14210;DHT22;7188;56.070;12.698;2023-04-03T08:44:22;2.60;1.00
14210;DHT22;7188;56.070;12.698;2023-04-03T08:49:59;2.70;1.00
14210;DHT22;7188;56.070;12.698;2023-04-03T08:57:47;2.70;1.00
14210;DHT22;7188;56.070;12.698;2023-04-03T09:00:18;2.70;1.00
14210;DHT22;7188;56.070;12.698;2023-04-03T09:02:49;2.80;1.00
14210;DHT22;7188;56.070;12.698;2023-04-03T09:05:19;2.80;1.00
14210;DHT22;7188;56.070;12.698;2023-04-03T09:07:56;2.80;1.00
14210;DHT22;7188;56.070;12.698;2023-04-03T09:10:33;2.90;1.00
14210;DHT22;7188;56.070;12.698;2023-04-03T09:13:06;2.90;1.00
14210;DHT22;7188;56.070;12.698;2023-04-03T09:15:36;2.80;1.00
14210;DHT22;7188;56.070;12.698;2023-04-03T09:18:27;3.10;1.00
14210;DHT22;7188;56.070;12.698;2023-04-03T09:23:39;3.30;1.00
14210;DHT22;7188;56.070;12.698;2023-04-03T09:26:30;3.20;1.00
14210;DHT22;7188;56.070;12.698;2023-04-03T09:28:59;3.30;1.00
14210;DHT22;7188;56.070;12.698;2023-04-03T09:31:37;3.50;1.00
14210;DHT22;7188;56.070;12.698;2023-04-03T09:34:41;3.60;1.00
14210;DHT22;7188;56.070;12.698;2023-04-03T09:37:06;3.70;1.00
14210;DHT22;7188;56.070;12.698;2023-04-03T09:39:49;3.80;1.00
14210;DHT22;7188;56.070;12.698;2023-04-03T09:42:21;3.60;1.00
14210;DHT22;7188;56.070;12.698;2023-04-03T09:45:21;3.60;1.00
14210;DHT22;7188;56.070;12.698;2023-04-03T09:47:48;3.70;1.00
14210;DHT22;7188;56.070;12.698;2023-04-03T09:52:44;3.90;1.00
14210;DHT22;7188;56.070;12.698;2023-04-03T09:55:19;4.00;1.00
14210;DHT22;7188;56.070;12.698;2023-04-03T09:57:46;4.10;1.00
14210;DHT22;7188;56.070;12.698;2023-04-03T10:00:30;4.20;1.00
14210;DHT22;7188;56.070;12.698;2023-04-03T10:02:58;4.40;1.00
14210;DHT22;7188;56.070;12.698;2023-04-03T10:05:42;4.30;1.00
14210;DHT22;7188;56.070;12.698;2023-04-03T10:10:33;4.40;1.00
14210;DHT22;7188;56.070;12.698;2023-04-03T10:15:46;4.40;1.00
14210;DHT22;7188;56.070;12.698;2023-04-03T10:20:49;4.30;1.00
14210;DHT22;7188;56.070;12.698;2023-04-03T10:28:35;4.50;1.00
14210;DHT22;7188;56.070;12.698;2023-04-03T10:31:16;4.40;1.00
14210;DHT22;7188;56.070;12.698;2023-04-03T10:34:39;4.50;1.00
14210;DHT22;7188;56.070;12.698;2023-04-03T10:36:51;4.50;1.00
14210;DHT22;7188;56.070;12.698;2023-04-03T10:39:27;4.50;1.00
14210;DHT22;7188;56.070;12.698;2023-04-03T10:42:03;4.50;1.00
14210;DHT22;7188;56.070;12.698;2023-04-03T10:47:09;4.60;1.00
14210;DHT22;7188;56.070;12.698;2023-04-03T10:52:20;4.80;1.00
14210;DHT22;7188;56.070;12.698;2023-04-03T10:57:24;4.90;1.00
14210;DHT22;7188;56.070;12.698;2023-04-03T10:59:59;5.00;1.00
14210;DHT22;7188;56.070;12.698;2023-04-03T11:02:56;4.90;1.00
14210;DHT22;7188;56.070;12.698;2023-04-03T11:05:39;4.90;1.00
14210;DHT22;7188;56.070;12.698;2023-04-03T11:11:11;5.00;1.00
14210;DHT22;7188;56.070;12.698;2023-04-03T11:16:50;5.00;1.00
14210;DHT22;7188;56.070;12.698;2023-04-03T11:19:22;5.10;1.00
14210;DHT22;7188;56.070;12.698;2023-04-03T11:22:07;5.10;1.00
14210;DHT22;7188;56.070;12.698;2023-04-03T11:24:36;5.20;1.00
14210;DHT22;7188;56.070;12.698;2023-04-03T11:27:05;5.30;1.00
14210;DHT22;7188;56.070;12.698;2023-04-03T11:29:38;5.30;1.00
14210;DHT22;7188;56.070;12.698;2023-04-03T11:34:59;5.50;1.00
14210;DHT22;7188;56.070;12.698;2023-04-03T11:37:44;5.60;1.00
14210;DHT22;7188;56.070;12.698;2023-04-03T11:42:52;5.70;1.00
14210;DHT22;7188;56.070;12.698;2023-04-03T11:45:34;5.70;1.00
14210;DHT22;7188;56.070;12.698;2023-04-03T11:53:38;5.40;1.00
14210;DHT22;7188;56.070;12.698;2023-04-03T11:56:38;5.40;1.00
14210;DHT22;7188;56.070;12.698;2023-04-03T12:04:19;5.70;1.00
14210;DHT22;7188;56.070;12.698;2023-04-03T12:12:40;5.80;1.00
14210;DHT22;7188;56.070;12.698;2023-04-03T12:20:58;5.80;1.00
14210;DHT22;7188;56.070;12.698;2023-04-03T12:23:32;6.00;1.00
14210;DHT22;7188;56.070;12.698;2023-04-03T12:26:20;6.30;1.00
14210;DHT22;7188;56.070;12.698;2023-04-03T12:28:48;6.30;1.00
14210;DHT22;7188;56.070;12.698;2023-04-03T12:31:15;6.10;1.00
14210;DHT22;7188;56.070;12.698;2023-04-03T12:34:24;6.10;1.00
14210;DHT22;7188;56.070;12.698;2023-04-03T12:37:03;6.20;1.00
14210;DHT22;7188;56.070;12.698;2023-04-03T12:45:24;6.00;1.00
14210;DHT22;7188;56.070;12.698;2023-04-03T12:47:53;6.00;1.00
14210;DHT22;7188;56.070;12.698;2023-04-03T12:50:23;5.90;1.00
14210;DHT22;7188;56.070;12.698;2023-04-03T12:53:05;6.00;1.00
14210;DHT22;7188;56.070;12.698;2023-04-03T12:55:32;6.10;1.00
14210;DHT22;7188;56.070;12.698;2023-04-03T12:58:19;6.10;1.00
14210;DHT22;7188;56.070;12.698;2023-04-03T13:00:46;6.00;1.00
14210;DHT22;7188;56.070;12.698;2023-04-03T13:03:30;6.10;1.00
14210;DHT22;7188;56.070;12.698;2023-04-03T13:06:00;6.20;1.00
14210;DHT22;7188;56.070;12.698;2023-04-03T13:08:27;6.40;1.00
14210;DHT22;7188;56.070;12.698;2023-04-03T13:11:06;6.30;1.00
14210;DHT22;7188;56.070;12.698;2023-04-03T13:13:34;6.40;1.00
14210;DHT22;7188;56.070;12.698;2023-04-03T13:16:08;6.30;1.00
14210;DHT22;7188;56.070;12.698;2023-04-03T13:18:35;6.30;1.00
14210;DHT22;7188;56.070;12.698;2023-04-03T13:21:10;6.40;1.00
14210;DHT22;7188;56.070;12.698;2023-04-03T13:23:38;6.40;1.00
14210;DHT22;7188;56.070;12.698;2023-04-03T13:26:06;6.50;1.00
14210;DHT22;7188;56.070;12.698;2023-04-03T13:28:33;6.60;1.00
14210;DHT22;7188;56.070;12.698;2023-04-03T13:33:30;6.50;1.00
14210;DHT22;7188;56.070;12.698;2023-04-03T13:36:19;6.60;1.00
14210;DHT22;7188;56.070;12.698;2023-04-03T13:38:45;6.50;1.00
14210;DHT22;7188;56.070;12.698;2023-04-03T13:41:32;6.50;1.00
14210;DHT22;7188;56.070;12.698;2023-04-03T13:44:36;6.60;1.00
14210;DHT22;7188;56.070;12.698;2023-04-03T13:47:21;6.70;1.00
14210;DHT22;7188;56.070;12.698;2023-04-03T13:50:15;6.60;1.00
14210;DHT22;7188;56.070;12.698;2023-04-03T13:52:59;6.40;1.00
14210;DHT22;7188;56.070;12.698;2023-04-03T13:55:29;6.50;1.00
14210;DHT22;7188;56.070;12.698;2023-04-03T14:00:49;6.10;1.00
14210;DHT22;7188;56.070;12.698;2023-04-03T14:05:44;5.90;1.00
14210;DHT22;7188;56.070;12.698;2023-04-03T14:08:10;5.90;1.00
14210;DHT22;7188;56.070;12.698;2023-04-03T14:10:37;6.10;1.00
14210;DHT22;7188;56.070;12.698;2023-04-03T14:13:03;6.30;1.00
14210;DHT22;7188;56.070;12.698;2023-04-03T14:15:30;6.40;1.00
14210;DHT22;7188;56.070;12.698;2023-04-03T14:17:57;6.50;1.00
14210;DHT22;7188;56.070;12.698;2023-04-03T14:20:25;6.60;1.00
14210;DHT22;7188;56.070;12.698;2023-04-03T14:22:51;6.50;1.00
14210;DHT22;7188;56.070;12.698;2023-04-03T14:25:18;6.40;1.00
14210;DHT22;7188;56.070;12.698;2023-04-03T14:27:49;6.20;1.00
14210;DHT22;7188;56.070;12.698;2023-04-03T14:30:26;6.10;1.00
14210;DHT22;7188;56.070;12.698;2023-04-03T14:32:52;6.10;1.00
14210;DHT22;7188;56.070;12.698;2023-04-03T14:35:19;6.20;1.00
14210;DHT22;7188;56.070;12.698;2023-04-03T14:37:47;6.10;1.00
14210;DHT22;7188;56.070;12.698;2023-04-03T14:40:19;6.10;1.00
14210;DHT22;7188;56.070;12.698;2023-04-03T14:42:45;6.00;1.00
14210;DHT22;7188;56.070;12.698;2023-04-03T14:45:13;5.80;1.00
14210;DHT22;7188;56.070;12.698;2023-04-03T14:47:59;5.80;1.00
14210;DHT22;7188;56.070;12.698;2023-04-03T14:50:26;5.80;1.00
14210;DHT22;7188;56.070;12.698;2023-04-03T14:52:55;5.90;1.00
14210;DHT22;7188;56.070;12.698;2023-04-03T14:55:22;5.90;1.00
14210;DHT22;7188;56.070;12.698;2023-04-03T14:57:48;6.00;1.00
14210;DHT22;7188;56.070;12.698;2023-04-03T15:00:17;6.00;1.00
14210;DHT22;7188;56.070;12.698;2023-04-03T15:02:55;6.00;1.00
14210;DHT22;7188;56.070;12.698;2023-04-03T15:05:20;6.00;1.00
14210;DHT22;7188;56.070;12.698;2023-04-03T15:07:54;6.00;1.00
14210;DHT22;7188;56.070;12.698;2023-04-03T15:10:23;5.90;1.00
14210;DHT22;7188;56.070;12.698;2023-04-03T15:12:49;5.80;1.00
14210;DHT22;7188;56.070;12.698;2023-04-03T15:15:16;5.80;1.00
14210;DHT22;7188;56.070;12.698;2023-04-03T15:17:43;5.80;1.00
14210;DHT22;7188;56.070;12.698;2023-04-03T15:20:16;5.80;1.00
14210;DHT22;7188;56.070;12.698;2023-04-03T15:22:42;5.70;1.00
14210;DHT22;7188;56.070;12.698;2023-04-03T15:25:08;5.70;1.00
14210;DHT22;7188;56.070;12.698;2023-04-03T15:27:34;5.70;1.00
14210;DHT22;7188;56.070;12.698;2023-04-03T15:30:00;5.60;1.00
14210;DHT22;7188;56.070;12.698;2023-04-03T15:32:25;5.60;1.00
14210;DHT22;7188;56.070;12.698;2023-04-03T15:34:51;5.60;1.00
14210;DHT22;7188;56.070;12.698;2023-04-03T15:37:16;5.60;1.00
14210;DHT22;7188;56.070;12.698;2023-04-03T15:39:42;5.70;1.00
14210;DHT22;7188;56.070;12.698;2023-04-03T15:42:07;5.70;1.00
14210;DHT22;7188;56.070;12.698;2023-04-03T15:44:34;5.50;1.00
14210;DHT22;7188;56.070;12.698;2023-04-03T15:47:00;5.40;1.00
14210;DHT22;7188;56.070;12.698;2023-04-03T15:49:27;5.40;1.00
14210;DHT22;7188;56.070;12.698;2023-04-03T15:51:53;5.40;1.00
14210;DHT22;7188;56.070;12.698;2023-04-03T15:54:18;5.30;1.00
14210;DHT22;7188;56.070;12.698;2023-04-03T15:56:44;5.30;1.00
14210;DHT22;7188;56.070;12.698;2023-04-03T15:59:10;5.20;1.00
14210;DHT22;7188;56.070;12.698;2023-04-03T16:01:37;5.10;1.00
14210;DHT22;7188;56.070;12.698;2023-04-03T16:04:05;5.10;1.00
14210;DHT22;7188;56.070;12.698;2023-04-03T16:06:32;5.20;1.00
14210;DHT22;7188;56.070;12.698;2023-04-03T16:08:59;5.20;1.00
14210;DHT22;7188;56.070;12.698;2023-04-03T16:11:26;5.30;1.00
14210;DHT22;7188;56.070;12.698;2023-04-03T16:13:53;5.10;1.00
14210;DHT22;7188;56.070;12.698;2023-04-03T16:16:18;5.10;1.00
14210;DHT22;7188;56.070;12.698;2023-04-03T16:18:46;5.10;1.00
14210;DHT22;7188;56.070;12.698;2023-04-03T16:21:13;5.00;1.00
14210;DHT22;7188;56.070;12.698;2023-04-03T16:23:40;5.00;1.00
14210;DHT22;7188;56.070;12.698;2023-04-03T16:26:06;4.90;1.00
14210;DHT22;7188;56.070;12.698;2023-04-03T16:28:32;4.90;1.00
14210;DHT22;7188;56.070;12.698;2023-04-03T16:30:58;4.90;1.00
14210;DHT22;7188;56.070;12.698;2023-04-03T16:33:26;4.70;1.00
14210;DHT22;7188;56.070;12.698;2023-04-03T16:35:52;4.70;1.00
14210;DHT22;7188;56.070;12.698;2023-04-03T16:38:18;4.60;1.00
14210;DHT22;7188;56.070;12.698;2023-04-03T16:40:48;4.60;1.00
14210;DHT22;7188;56.070;12.698;2023-04-03T16:43:14;4.60;1.00
14210;DHT22;7188;56.070;12.698;2023-04-03T16:45:40;4.60;1.00
14210;DHT22;7188;56.070;12.698;2023-04-03T16:48:06;4.60;1.00
14210;DHT22;7188;56.070;12.698;2023-04-03T16:50:31;4.60;1.00
14210;DHT22;7188;56.070;12.698;2023-04-03T16:52:57;4.70;1.00
14210;DHT22;7188;56.070;12.698;2023-04-03T16:55:23;4.70;1.00
14210;DHT22;7188;56.070;12.698;2023-04-03T16:57:49;4.60;1.00
14210;DHT22;7188;56.070;12.698;2023-04-03T17:00:15;4.50;1.00
14210;DHT22;7188;56.070;12.698;2023-04-03T17:02:40;4.50;1.00
14210;DHT22;7188;56.070;12.698;2023-04-03T17:05:07;4.50;1.00
14210;DHT22;7188;56.070;12.698;2023-04-03T17:07:33;4.40;1.00
14210;DHT22;7188;56.070;12.698;2023-04-03T17:09:59;4.30;1.00
14210;DHT22;7188;56.070;12.698;2023-04-03T17:12:25;4.30;1.00
14210;DHT22;7188;56.070;12.698;2023-04-03T17:14:50;4.20;1.00
14210;DHT22;7188;56.070;12.698;2023-04-03T17:17:20;4.20;1.00
14210;DHT22;7188;56.070;12.698;2023-04-03T17:19:46;4.20;1.00
14210;DHT22;7188;56.070;12.698;2023-04-03T17:22:14;4.10;1.00
14210;DHT22;7188;56.070;12.698;2023-04-03T17:24:47;4.10;1.00
14210;DHT22;7188;56.070;12.698;2023-04-03T17:27:13;4.00;1.00
14210;DHT22;7188;56.070;12.698;2023-04-03T17:29:38;4.00;1.00